createdAt,value
2023-07-25T00:01:36.304Z,24.91
2023-07-25T00:04:05.161Z,24.91
2023-07-25T00:06:34.198Z,24.94
2023-07-25T00:09:03.339Z,24.92
2023-07-25T00:11:32.670Z,24.91
2023-07-25T00:14:02.141Z,25.00
2023-07-25T00:16:31.125Z,24.98
2023-07-25T00:18:59.812Z,24.86
2023-07-25T00:21:28.841Z,24.76
2023-07-25T00:23:57.530Z,24.66
2023-07-25T00:26:27.738Z,24.75
2023-07-25T00:28:56.475Z,24.68
2023-07-25T00:31:25.467Z,24.69
2023-07-25T00:33:54.308Z,24.63
2023-07-25T00:36:23.275Z,24.74
2023-07-25T00:38:51.868Z,24.57
2023-07-25T00:41:20.795Z,24.66
2023-07-25T00:43:49.425Z,24.63
2023-07-25T00:46:18.616Z,24.49
2023-07-25T00:48:47.348Z,24.60
2023-07-25T00:51:16.332Z,24.56
2023-07-25T00:53:44.946Z,24.57
2023-07-25T00:56:15.278Z,24.69
2023-07-25T00:58:43.962Z,24.71
2023-07-25T01:01:13.001Z,24.64
2023-07-25T01:03:41.719Z,24.70
2023-07-25T01:06:14.224Z,24.77
2023-07-25T01:09:03.018Z,24.77
2023-07-25T01:11:32.334Z,24.83
2023-07-25T01:14:01.129Z,24.79
2023-07-25T01:16:31.202Z,24.78
2023-07-25T01:18:59.936Z,24.93
2023-07-25T01:21:29.135Z,24.90
2023-07-25T01:24:03.472Z,24.80
2023-07-25T01:26:33.244Z,24.64
2023-07-25T01:29:01.874Z,24.77
2023-07-25T01:31:31.246Z,24.80
2023-07-25T01:34:00.220Z,24.80
2023-07-25T01:36:29.165Z,24.78
2023-07-25T01:38:57.824Z,24.81
2023-07-25T01:41:26.836Z,24.82
2023-07-25T01:43:55.647Z,24.82
2023-07-25T01:46:25.067Z,24.77
2023-07-25T01:48:53.731Z,24.78
2023-07-25T01:51:22.711Z,24.81
2023-07-25T01:53:52.221Z,24.81
2023-07-25T01:56:21.526Z,24.77
2023-07-25T01:58:50.215Z,24.67
2023-07-25T02:01:19.270Z,24.73
2023-07-25T02:03:48.172Z,24.69
2023-07-25T02:06:17.074Z,24.75
2023-07-25T02:08:45.646Z,24.61
2023-07-25T02:11:14.727Z,24.56
2023-07-25T02:13:43.395Z,24.69
2023-07-25T02:16:12.368Z,24.70
2023-07-25T02:18:41.250Z,24.80
2023-07-25T02:21:10.284Z,24.90
2023-07-25T02:23:38.895Z,24.73
2023-07-25T02:26:07.999Z,24.79
2023-07-25T02:28:36.593Z,25.02
2023-07-25T02:31:05.641Z,25.07
2023-07-25T02:33:34.775Z,25.16
2023-07-25T02:36:03.807Z,25.06
2023-07-25T02:38:32.580Z,25.10
2023-07-25T02:41:01.569Z,24.93
2023-07-25T02:43:30.178Z,24.75
2023-07-25T02:45:59.143Z,24.71
2023-07-25T02:48:28.170Z,24.56
2023-07-25T02:50:57.159Z,24.75
2023-07-25T02:53:25.865Z,24.66
2023-07-25T02:55:55.844Z,24.74
2023-07-25T02:58:24.921Z,24.83
2023-07-25T03:00:53.917Z,24.72
2023-07-25T03:03:22.498Z,24.67
2023-07-25T03:05:52.842Z,24.62
2023-07-25T03:08:22.203Z,24.59
2023-07-25T03:10:51.443Z,24.70
2023-07-25T03:13:20.442Z,24.60
2023-07-25T03:15:49.558Z,24.56
2023-07-25T03:18:18.362Z,24.70
2023-07-25T03:20:47.351Z,24.79
2023-07-25T03:23:16.036Z,24.73
2023-07-25T03:25:45.101Z,24.95
2023-07-25T03:28:13.904Z,24.89
2023-07-25T03:30:43.141Z,24.82
2023-07-25T03:33:11.876Z,24.88
2023-07-25T03:35:40.971Z,24.56
2023-07-25T03:38:09.793Z,23.85
2023-07-25T03:40:40.049Z,23.64
2023-07-25T03:43:08.967Z,23.10
2023-07-25T03:45:38.112Z,23.62
2023-07-25T03:48:07.159Z,23.98
2023-07-25T03:50:36.402Z,24.14
2023-07-25T03:53:06.391Z,24.28
2023-07-25T03:55:35.530Z,24.26
2023-07-25T03:58:04.344Z,24.29
2023-07-25T04:00:33.473Z,24.19
2023-07-25T04:03:14.182Z,24.11
2023-07-25T04:05:44.969Z,24.01
2023-07-25T04:08:13.713Z,24.16
2023-07-25T04:10:42.893Z,24.09
2023-07-25T04:13:11.744Z,24.02
2023-07-25T04:15:42.852Z,24.01
2023-07-25T04:18:11.560Z,24.05
2023-07-25T04:20:41.675Z,24.08
2023-07-25T04:23:10.987Z,24.04
2023-07-25T04:25:40.142Z,24.04
2023-07-25T04:28:09.264Z,24.21
2023-07-25T04:30:38.379Z,24.23
2023-07-25T04:33:07.143Z,24.27
2023-07-25T04:35:37.462Z,24.38
2023-07-25T04:38:06.270Z,24.45
2023-07-25T04:40:35.276Z,24.50
2023-07-25T04:43:03.964Z,24.27
2023-07-25T04:45:32.992Z,24.35
2023-07-25T04:48:02.480Z,24.35
2023-07-25T04:50:31.554Z,24.36
2023-07-25T04:53:00.293Z,24.36
2023-07-25T04:55:29.309Z,24.45
2023-07-25T04:57:57.998Z,24.47
2023-07-25T05:00:30.747Z,24.47
2023-07-25T05:02:59.749Z,24.44
2023-07-25T05:05:29.049Z,24.51
2023-07-25T05:07:57.668Z,24.67
2023-07-25T05:10:26.670Z,24.71
2023-07-25T05:12:55.292Z,24.81
2023-07-25T05:15:24.478Z,24.80
2023-07-25T05:17:53.155Z,24.76
2023-07-25T05:20:22.188Z,24.76
2023-07-25T05:22:50.927Z,24.75
2023-07-25T05:25:19.946Z,24.81
2023-07-25T05:27:48.593Z,24.93
2023-07-25T05:30:17.737Z,24.93
2023-07-25T05:32:47.094Z,24.96
2023-07-25T05:35:17.704Z,24.98
2023-07-25T05:37:46.409Z,25.06
2023-07-25T05:40:15.375Z,25.09
2023-07-25T05:42:44.649Z,24.94
2023-07-25T05:45:13.818Z,24.85
2023-07-25T05:47:42.546Z,25.11
2023-07-25T05:50:12.367Z,25.22
2023-07-25T05:52:41.128Z,25.27
2023-07-25T05:55:10.696Z,24.88
2023-07-25T05:57:39.406Z,24.71
2023-07-25T06:00:09.430Z,24.71
2023-07-25T06:02:39.133Z,24.79
2023-07-25T06:05:09.310Z,24.74
2023-07-25T06:07:38.599Z,24.86
2023-07-25T06:10:08.477Z,24.94
2023-07-25T06:12:37.194Z,24.74
2023-07-25T06:15:06.806Z,24.54
2023-07-25T06:17:35.457Z,24.50
2023-07-25T06:20:05.454Z,24.62
2023-07-25T06:22:36.098Z,24.41
2023-07-25T06:25:09.617Z,24.39
2023-07-25T06:27:38.489Z,24.32
2023-07-25T06:30:09.273Z,24.33
2023-07-25T06:32:41.338Z,24.31
2023-07-25T06:35:11.897Z,24.29
2023-07-25T06:37:40.858Z,24.40
2023-07-25T06:40:10.262Z,24.29
2023-07-25T06:42:38.944Z,24.34
2023-07-25T06:45:09.463Z,24.22
2023-07-25T06:47:38.478Z,24.24
2023-07-25T06:50:07.989Z,24.35
2023-07-25T06:52:36.837Z,24.42
2023-07-25T06:55:06.967Z,24.41
2023-07-25T06:57:35.616Z,24.44
2023-07-25T07:00:05.256Z,24.42
2023-07-25T07:02:34.163Z,24.44
2023-07-25T07:05:15.388Z,24.47
2023-07-25T07:07:48.288Z,24.68
2023-07-25T07:10:17.383Z,24.72
2023-07-25T07:12:49.882Z,24.71
2023-07-25T07:15:19.313Z,24.77
2023-07-25T07:17:48.451Z,24.86
2023-07-25T07:20:19.041Z,24.81
2023-07-25T07:22:48.301Z,24.79
2023-07-25T07:25:17.389Z,24.74
2023-07-25T07:27:46.047Z,24.52
2023-07-25T07:30:15.162Z,24.46
2023-07-25T07:32:43.933Z,24.29
2023-07-25T07:35:12.893Z,24.30
2023-07-25T07:37:41.620Z,24.39
2023-07-25T07:40:12.169Z,24.61
2023-07-25T07:42:40.842Z,24.78
2023-07-25T07:45:19.639Z,24.92
2023-07-25T07:47:48.451Z,24.86
2023-07-25T07:50:17.586Z,24.85
2023-07-25T07:52:46.543Z,24.74
2023-07-25T07:55:15.972Z,24.75
2023-07-25T07:57:46.896Z,24.79
2023-07-25T08:00:16.683Z,24.87
2023-07-25T08:02:47.894Z,24.83
2023-07-25T08:05:16.917Z,24.89
2023-07-25T08:07:45.590Z,24.98
2023-07-25T08:10:15.246Z,24.95
2023-07-25T08:12:44.088Z,24.80
2023-07-25T08:15:13.318Z,24.69
2023-07-25T08:17:42.074Z,24.57
2023-07-25T08:20:11.366Z,24.29
2023-07-25T08:22:40.110Z,24.18
2023-07-25T08:25:10.688Z,24.27
2023-07-25T08:27:39.395Z,24.37
2023-07-25T08:30:08.996Z,24.37
2023-07-25T08:32:37.769Z,24.44
2023-07-25T08:35:07.084Z,24.46
2023-07-25T08:37:35.827Z,24.03
2023-07-25T08:40:06.605Z,23.89
2023-07-25T08:42:35.335Z,23.93
2023-07-25T08:45:05.597Z,24.04
2023-07-25T08:47:35.140Z,24.09
2023-07-25T08:50:04.470Z,23.85
2023-07-25T08:52:33.249Z,23.85
2023-07-25T08:55:02.285Z,23.87
2023-07-25T08:57:31.045Z,23.94
2023-07-25T09:00:00.054Z,23.91
2023-07-25T09:02:29.228Z,23.83
2023-07-25T09:04:58.360Z,23.98
2023-07-25T09:07:27.005Z,24.10
2023-07-25T09:09:56.851Z,24.04
2023-07-25T09:12:25.826Z,24.08
2023-07-25T09:14:54.817Z,24.10
2023-07-25T09:17:23.656Z,24.01
2023-07-25T09:19:52.696Z,24.03
2023-07-25T09:22:29.677Z,24.12
2023-07-25T09:24:59.205Z,24.19
2023-07-25T09:27:28.139Z,24.34
2023-07-25T09:29:58.345Z,24.48
2023-07-25T09:32:28.947Z,24.53
2023-07-25T09:35:02.871Z,24.62
2023-07-25T09:37:32.101Z,24.62
2023-07-25T09:40:02.235Z,24.75
2023-07-25T09:42:30.866Z,24.79
2023-07-25T09:44:59.941Z,24.91
2023-07-25T09:47:29.522Z,24.97
2023-07-25T09:49:58.611Z,25.00
2023-07-25T09:52:28.014Z,25.05
2023-07-25T09:54:56.961Z,25.06
2023-07-25T09:57:25.478Z,25.14
2023-07-25T09:59:54.371Z,25.18
2023-07-25T10:02:23.048Z,25.26
2023-07-25T10:04:52.612Z,25.33
2023-07-25T10:07:21.267Z,25.41
2023-07-25T10:09:50.264Z,25.46
2023-07-25T10:12:18.764Z,25.50
2023-07-25T10:14:48.686Z,25.56
2023-07-25T10:17:17.374Z,25.55
2023-07-25T10:19:48.811Z,25.64
2023-07-25T10:22:17.842Z,25.63
2023-07-25T10:24:46.906Z,25.67
2023-07-25T10:27:15.776Z,25.74
2023-07-25T10:29:48.672Z,25.77
2023-07-25T10:32:23.991Z,25.82
2023-07-25T10:35:04.384Z,25.57
2023-07-25T10:37:37.888Z,25.59
2023-07-25T10:40:22.085Z,25.68
2023-07-25T10:43:05.865Z,25.58
2023-07-25T10:45:46.161Z,25.62
2023-07-25T10:48:31.053Z,25.74
2023-07-25T10:51:00.905Z,25.47
2023-07-25T10:53:29.563Z,25.41
2023-07-25T10:56:10.914Z,25.45
2023-07-25T10:58:41.204Z,25.50
2023-07-25T11:01:21.439Z,25.49
2023-07-25T11:03:50.176Z,25.49
2023-07-25T11:06:39.295Z,25.48
2023-07-25T11:09:12.389Z,25.50
2023-07-25T11:11:48.419Z,25.68
2023-07-25T11:14:19.017Z,25.80
2023-07-25T11:16:50.888Z,25.90
2023-07-25T11:19:21.908Z,25.95
2023-07-25T11:21:50.875Z,26.04
2023-07-25T11:24:21.253Z,25.96
2023-07-25T11:26:50.305Z,25.96
2023-07-25T11:29:19.718Z,25.83
2023-07-25T11:31:49.689Z,25.91
2023-07-25T11:34:20.440Z,25.94
2023-07-25T11:36:49.449Z,25.87
2023-07-25T11:39:19.153Z,25.80
2023-07-25T11:41:48.272Z,25.99
2023-07-25T11:44:18.722Z,25.83
2023-07-25T11:46:54.545Z,25.95
2023-07-25T11:49:40.498Z,25.96
2023-07-25T11:52:12.243Z,25.95
2023-07-25T11:54:40.886Z,25.99
2023-07-25T11:57:11.302Z,26.02
2023-07-25T11:59:43.002Z,26.08
2023-07-25T12:02:14.786Z,26.12
2023-07-25T12:04:45.123Z,26.14
2023-07-25T12:07:15.343Z,26.19
2023-07-25T12:09:54.306Z,26.29
2023-07-25T12:12:23.463Z,26.38
2023-07-25T12:14:56.836Z,26.31
2023-07-25T12:17:41.303Z,26.35
2023-07-25T12:20:16.945Z,26.46
2023-07-25T12:22:48.854Z,26.49
2023-07-25T12:25:19.097Z,26.45
2023-07-25T12:27:49.202Z,26.47
2023-07-25T12:30:18.099Z,26.67
2023-07-25T12:32:47.552Z,26.61
2023-07-25T12:35:16.257Z,26.71
2023-07-25T12:37:45.195Z,26.74
2023-07-25T12:40:13.818Z,26.82
2023-07-25T12:42:43.870Z,26.81
2023-07-25T12:45:12.522Z,26.73
2023-07-25T12:47:41.225Z,26.75
2023-07-25T12:50:11.288Z,26.65
2023-07-25T12:52:40.008Z,26.53
2023-07-25T12:55:09.609Z,26.64
2023-07-25T12:57:38.975Z,26.77
2023-07-25T13:00:11.004Z,26.82
2023-07-25T13:02:40.305Z,26.80
2023-07-25T13:05:09.526Z,26.79
2023-07-25T13:07:38.259Z,26.87
2023-07-25T13:10:08.180Z,26.93
2023-07-25T13:12:36.822Z,26.95
2023-07-25T13:15:07.475Z,26.89
2023-07-25T13:17:36.198Z,26.91
2023-07-25T13:20:09.738Z,26.98
2023-07-25T13:22:38.333Z,27.00
2023-07-25T13:25:07.556Z,27.08
2023-07-25T13:27:36.108Z,27.05
2023-07-25T13:30:05.476Z,26.99
2023-07-25T13:32:34.179Z,26.96
2023-07-25T13:35:03.178Z,27.01
2023-07-25T13:37:32.249Z,26.99
2023-07-25T13:40:01.285Z,27.01
2023-07-25T13:42:30.061Z,26.85
2023-07-25T13:44:59.074Z,26.94
2023-07-25T13:47:27.643Z,27.04
2023-07-25T13:49:59.750Z,27.01
2023-07-25T13:52:28.783Z,26.97
2023-07-25T13:54:58.008Z,26.97
2023-07-25T13:57:32.597Z,26.95
2023-07-25T14:00:04.840Z,26.93
2023-07-25T14:02:33.672Z,27.00
2023-07-25T14:05:03.047Z,26.95
2023-07-25T14:07:31.695Z,26.98
2023-07-25T14:10:01.680Z,27.02
2023-07-25T14:12:30.786Z,26.99
2023-07-25T14:15:02.528Z,27.02
2023-07-25T14:17:31.523Z,27.07
2023-07-25T14:20:00.522Z,27.14
2023-07-25T14:22:29.414Z,27.22
2023-07-25T14:24:59.388Z,27.23
2023-07-25T14:27:28.245Z,27.25
2023-07-25T14:29:57.218Z,27.23
2023-07-25T14:32:27.005Z,27.22
2023-07-25T14:34:57.070Z,27.23
2023-07-25T14:37:31.218Z,27.23
2023-07-25T14:40:08.210Z,27.24
2023-07-25T14:42:36.789Z,27.27
2023-07-25T14:45:06.295Z,27.37
2023-07-25T14:47:35.030Z,27.40
2023-07-25T14:50:04.153Z,27.37
2023-07-25T14:52:33.063Z,27.35
2023-07-25T14:55:02.132Z,27.27
2023-07-25T14:57:31.916Z,27.27
2023-07-25T15:00:00.996Z,27.28
2023-07-25T15:02:29.909Z,27.29
2023-07-25T15:04:59.509Z,27.19
2023-07-25T15:07:28.172Z,27.06
2023-07-25T15:09:57.297Z,27.03
2023-07-25T15:12:27.944Z,26.99
2023-07-25T15:14:56.884Z,26.96
2023-07-25T15:17:25.978Z,26.96
2023-07-25T15:20:02.382Z,26.99
2023-07-25T15:22:31.354Z,26.97
2023-07-25T15:25:01.018Z,26.95
2023-07-25T15:27:29.892Z,26.87
2023-07-25T15:29:58.885Z,26.91
2023-07-25T15:32:28.661Z,26.88
2023-07-25T15:34:57.744Z,26.92
2023-07-25T15:37:26.883Z,27.01
2023-07-25T15:39:55.941Z,26.91
2023-07-25T15:42:24.534Z,26.95
2023-07-25T15:44:54.498Z,26.88
2023-07-25T15:47:23.223Z,26.83
2023-07-25T15:49:53.949Z,26.86
2023-07-25T15:52:22.615Z,26.89
2023-07-25T15:54:51.596Z,26.91
2023-07-25T15:57:20.280Z,26.91
2023-07-25T15:59:49.255Z,26.91
2023-07-25T16:02:18.009Z,26.87
2023-07-25T16:04:47.597Z,26.88
2023-07-25T16:07:16.256Z,26.79
2023-07-25T16:09:45.258Z,26.84
2023-07-25T16:12:14.427Z,26.84
2023-07-25T16:14:43.725Z,26.82
2023-07-25T16:17:12.524Z,26.87
2023-07-25T16:19:42.318Z,26.83
2023-07-25T16:22:11.083Z,26.87
2023-07-25T16:24:40.090Z,26.91
2023-07-25T16:27:08.748Z,26.91
2023-07-25T16:29:38.488Z,26.89
2023-07-25T16:32:07.739Z,26.91
2023-07-25T16:34:36.812Z,26.87
2023-07-25T16:37:05.742Z,26.89
2023-07-25T16:39:34.777Z,26.87
2023-07-25T16:42:04.373Z,26.96
2023-07-25T16:44:33.387Z,26.91
2023-07-25T16:47:02.138Z,26.87
2023-07-25T16:49:31.094Z,26.86
2023-07-25T16:51:59.767Z,26.86
2023-07-25T16:54:28.797Z,26.83
2023-07-25T16:56:57.830Z,26.84
2023-07-25T16:59:26.875Z,26.86
2023-07-25T17:01:55.558Z,26.84
2023-07-25T17:04:24.614Z,26.85
2023-07-25T17:06:53.314Z,26.83
2023-07-25T17:09:22.394Z,26.85
2023-07-25T17:11:51.070Z,26.83
2023-07-25T17:14:21.125Z,26.87
2023-07-25T17:16:49.828Z,26.87
2023-07-25T17:19:19.582Z,26.82
2023-07-25T17:21:49.130Z,26.85
2023-07-25T17:24:19.448Z,26.87
2023-07-25T17:26:48.275Z,26.89
2023-07-25T17:29:17.647Z,26.93
2023-07-25T17:31:46.357Z,26.96
2023-07-25T17:34:15.780Z,26.98
2023-07-25T17:36:44.484Z,26.98
2023-07-25T17:39:13.606Z,27.01
2023-07-25T17:41:42.267Z,27.01
2023-07-25T17:44:11.272Z,27.01
2023-07-25T17:46:39.962Z,27.04
2023-07-25T17:49:09.087Z,27.06
2023-07-25T17:51:37.763Z,27.07
2023-07-25T17:54:07.920Z,27.04
2023-07-25T17:56:36.671Z,27.06
2023-07-25T17:59:06.455Z,27.06
2023-07-25T18:01:35.486Z,27.00
2023-07-25T18:04:04.904Z,27.01
2023-07-25T18:06:35.301Z,27.04
2023-07-25T18:09:05.422Z,27.05
2023-07-25T18:11:34.567Z,27.05
2023-07-25T18:14:04.128Z,27.08
2023-07-25T18:16:32.792Z,27.06
2023-07-25T18:19:01.885Z,27.08
2023-07-25T18:21:31.613Z,27.04
2023-07-25T18:24:00.745Z,27.03
2023-07-25T18:26:29.604Z,27.03
2023-07-25T18:28:58.626Z,27.02
2023-07-25T18:31:27.534Z,27.00
2023-07-25T18:33:56.604Z,26.99
2023-07-25T18:36:25.260Z,26.97
2023-07-25T18:38:54.334Z,26.97
2023-07-25T18:41:23.735Z,26.99
2023-07-25T18:43:52.793Z,26.98
2023-07-25T18:46:21.563Z,26.97
2023-07-25T18:48:50.616Z,26.96
2023-07-25T18:51:19.410Z,26.97
2023-07-25T18:53:48.476Z,26.96
2023-07-25T18:56:17.119Z,26.98
2023-07-25T18:58:46.076Z,26.96
2023-07-25T19:01:14.878Z,26.95
2023-07-25T19:03:43.896Z,26.91
2023-07-25T19:06:12.664Z,26.91
2023-07-25T19:08:41.620Z,26.87
2023-07-25T19:11:10.274Z,26.90
2023-07-25T19:13:40.466Z,26.86
2023-07-25T19:16:09.236Z,26.83
2023-07-25T19:18:38.254Z,26.79
2023-07-25T19:21:06.961Z,26.84
2023-07-25T19:23:36.654Z,26.84
2023-07-25T19:26:05.519Z,26.80
2023-07-25T19:28:34.523Z,26.79
2023-07-25T19:31:06.146Z,26.78
2023-07-25T19:33:35.274Z,26.81
2023-07-25T19:36:04.067Z,26.83
2023-07-25T19:38:33.338Z,26.83
2023-07-25T19:41:02.106Z,26.85
2023-07-25T19:43:31.256Z,26.84
2023-07-25T19:46:05.134Z,26.82
2023-07-25T19:48:34.447Z,26.81
2023-07-25T19:51:13.686Z,26.79
2023-07-25T19:53:42.896Z,26.80
2023-07-25T19:56:11.987Z,26.76
2023-07-25T19:58:41.246Z,26.72
2023-07-25T20:01:11.155Z,26.68
2023-07-25T20:03:41.788Z,26.66
2023-07-25T20:06:10.932Z,26.67
2023-07-25T20:08:41.181Z,26.67
2023-07-25T20:11:13.944Z,26.68
2023-07-25T20:13:43.726Z,26.68
2023-07-25T20:16:12.961Z,26.66
2023-07-25T20:18:42.231Z,26.63
2023-07-25T20:21:12.245Z,26.63
2023-07-25T20:23:41.682Z,26.64
2023-07-25T20:26:13.319Z,26.56
2023-07-25T20:28:42.561Z,26.57
2023-07-25T20:31:13.527Z,26.54
2023-07-25T20:33:43.390Z,26.52
2023-07-25T20:36:12.122Z,26.47
2023-07-25T20:38:43.546Z,26.46
2023-07-25T20:41:12.264Z,26.49
2023-07-25T20:43:42.307Z,26.53
2023-07-25T20:46:11.637Z,26.43
2023-07-25T20:48:41.948Z,26.45
2023-07-25T20:51:10.775Z,26.48
2023-07-25T20:53:39.943Z,26.44
2023-07-25T20:56:09.305Z,26.36
2023-07-25T20:58:39.386Z,26.29
2023-07-25T21:01:09.300Z,26.30
2023-07-25T21:03:38.664Z,26.26
2023-07-25T21:06:07.458Z,26.30
2023-07-25T21:08:36.728Z,26.31
2023-07-25T21:11:09.321Z,26.32
2023-07-25T21:13:38.582Z,26.34
2023-07-25T21:16:07.379Z,26.31
2023-07-25T21:18:37.031Z,26.28
2023-07-25T21:21:05.882Z,26.29
2023-07-25T21:23:35.092Z,26.25
2023-07-25T21:26:05.238Z,26.28
2023-07-25T21:28:34.447Z,26.29
2023-07-25T21:31:07.427Z,26.28
2023-07-25T21:33:37.819Z,26.25
2023-07-25T21:36:14.853Z,26.15
2023-07-25T21:38:44.331Z,26.10
2023-07-25T21:41:13.711Z,26.18
2023-07-25T21:43:43.542Z,26.14
2023-07-25T21:46:12.556Z,26.15
2023-07-25T21:48:41.908Z,26.18
2023-07-25T21:51:11.874Z,26.22
2023-07-25T21:53:43.931Z,26.27
2023-07-25T21:56:12.841Z,26.31
2023-07-25T21:58:42.322Z,26.32
2023-07-25T22:01:11.261Z,26.36
2023-07-25T22:03:40.898Z,26.40
2023-07-25T22:06:09.756Z,26.43
2023-07-25T22:08:39.020Z,26.45
2023-07-25T22:11:07.902Z,26.32
2023-07-25T22:13:37.080Z,26.44
2023-07-25T22:16:06.570Z,26.45
2023-07-25T22:18:35.988Z,26.47
2023-07-25T22:21:04.866Z,26.49
2023-07-25T22:23:34.025Z,26.50
2023-07-25T22:26:03.535Z,26.50
2023-07-25T22:28:32.909Z,26.52
2023-07-25T22:31:02.298Z,26.52
2023-07-25T22:33:31.498Z,26.51
2023-07-25T22:36:00.511Z,26.54
2023-07-25T22:38:29.766Z,26.55
2023-07-25T22:40:58.666Z,26.55
2023-07-25T22:43:27.789Z,26.57
2023-07-25T22:45:56.734Z,26.44
2023-07-25T22:48:26.053Z,26.32
2023-07-25T22:50:54.903Z,26.31
2023-07-25T22:53:24.036Z,26.30
2023-07-25T22:55:52.845Z,26.16
2023-07-25T22:58:22.553Z,26.05
2023-07-25T23:00:51.369Z,26.20
2023-07-25T23:03:20.564Z,26.24
2023-07-25T23:05:49.527Z,26.17
2023-07-25T23:08:18.671Z,26.20
2023-07-25T23:10:53.478Z,26.15
2023-07-25T23:13:22.767Z,26.15
2023-07-25T23:15:51.645Z,26.21
2023-07-25T23:18:20.798Z,26.23
2023-07-25T23:20:49.653Z,26.30
2023-07-25T23:23:18.854Z,26.35
2023-07-25T23:25:48.269Z,26.35
2023-07-25T23:28:17.440Z,26.25
2023-07-25T23:30:46.430Z,26.19
2023-07-25T23:33:15.584Z,26.14
2023-07-25T23:35:44.489Z,26.17
2023-07-25T23:38:13.882Z,26.23
2023-07-25T23:40:42.781Z,26.23
2023-07-25T23:43:12.861Z,25.93
2023-07-25T23:45:41.680Z,26.14
2023-07-25T23:48:10.861Z,26.26
2023-07-25T23:50:39.697Z,26.20
2023-07-25T23:53:08.892Z,26.25
2023-07-25T23:55:37.768Z,26.29
2023-07-25T23:58:07.012Z,26.26
